createdAt,value
2018-09-05T00:00:46.105Z,10.70
2018-09-05T00:03:14.549Z,10.90
2018-09-05T00:05:42.984Z,10.73
2018-09-05T00:08:11.426Z,11.10
2018-09-05T00:10:40.035Z,9.20
2018-09-05T00:13:08.678Z,11.73
2018-09-05T00:15:37.197Z,12.07
2018-09-05T00:18:05.641Z,11.17
2018-09-05T00:20:34.249Z,15.30
2018-09-05T00:23:02.708Z,10.70
2018-09-05T00:25:31.214Z,12.07
2018-09-05T00:27:59.590Z,10.77
2018-09-05T00:30:27.986Z,13.53
2018-09-05T00:32:56.389Z,10.73
2018-09-05T00:35:24.838Z,10.57
2018-09-05T00:37:53.266Z,11.33
2018-09-05T00:40:21.800Z,11.67
2018-09-05T00:42:50.337Z,10.93
2018-09-05T00:45:18.781Z,11.23
2018-09-05T00:47:47.308Z,11.03
2018-09-05T00:50:15.688Z,10.77
2018-09-05T00:52:44.104Z,11.77
2018-09-05T00:55:12.496Z,13.97
2018-09-05T00:57:40.926Z,12.27
2018-09-05T01:00:09.468Z,11.17
2018-09-05T01:02:37.987Z,11.70
2018-09-05T01:05:06.508Z,12.83
2018-09-05T01:07:35.043Z,12.03
2018-09-05T01:10:03.445Z,12.47
2018-09-05T01:12:31.848Z,11.17
2018-09-05T01:15:00.432Z,12.57
2018-09-05T01:17:28.977Z,12.70
2018-09-05T01:19:57.537Z,12.87
2018-09-05T01:22:25.889Z,10.87
2018-09-05T01:24:54.354Z,10.37
2018-09-05T01:27:22.839Z,10.57
2018-09-05T01:29:51.245Z,12.50
2018-09-05T01:32:19.798Z,11.77
2018-09-05T01:34:48.259Z,13.47
2018-09-05T01:37:16.705Z,11.07
2018-09-05T01:39:45.179Z,11.80
2018-09-05T01:42:13.627Z,13.13
2018-09-05T01:44:42.173Z,13.50
2018-09-05T01:47:10.575Z,11.77
2018-09-05T01:49:39.030Z,14.17
2018-09-05T01:52:07.462Z,11.00
2018-09-05T01:54:36.007Z,10.20
2018-09-05T01:57:04.482Z,9.50
2018-09-05T01:59:32.835Z,11.53
2018-09-05T02:02:01.328Z,12.67
2018-09-05T02:04:29.815Z,15.77
2018-09-05T02:06:58.334Z,17.37
2018-09-05T02:09:26.706Z,13.07
2018-09-05T02:11:55.097Z,12.93
2018-09-05T02:14:23.655Z,12.73
2018-09-05T02:16:52.154Z,12.63
2018-09-05T02:19:20.745Z,10.87
2018-09-05T02:21:49.208Z,10.43
2018-09-05T02:24:17.682Z,10.93
2018-09-05T02:26:46.109Z,10.40
2018-09-05T02:29:14.588Z,11.20
2018-09-05T02:31:42.991Z,10.77
2018-09-05T02:34:11.390Z,11.27
2018-09-05T02:36:39.781Z,10.80
2018-09-05T02:39:09.745Z,10.70
2018-09-05T02:41:38.205Z,11.33
2018-09-05T02:44:12.211Z,12.20
2018-09-05T02:46:40.598Z,9.70
2018-09-05T02:49:09.492Z,11.57
2018-09-05T02:51:38.016Z,14.73
2018-09-05T02:54:06.465Z,14.07
2018-09-05T02:56:35.007Z,12.00
2018-09-05T02:59:03.571Z,13.00
2018-09-05T03:01:32.182Z,12.83
2018-09-05T03:04:00.633Z,12.23
2018-09-05T03:06:29.160Z,13.87
2018-09-05T03:08:57.639Z,12.20
2018-09-05T03:11:26.153Z,12.80
2018-09-05T03:13:54.600Z,16.23
2018-09-05T03:16:23.032Z,13.10
2018-09-05T03:18:51.467Z,12.90
2018-09-05T03:21:19.954Z,13.13
2018-09-05T03:23:48.417Z,13.33
2018-09-05T03:26:16.855Z,11.40
2018-09-05T03:28:45.397Z,11.57
2018-09-05T03:31:13.853Z,13.67
2018-09-05T03:33:42.355Z,11.03
2018-09-05T03:36:10.785Z,11.20
2018-09-05T03:38:39.296Z,12.03
2018-09-05T03:41:07.800Z,13.57
2018-09-05T03:43:36.285Z,12.53
2018-09-05T03:46:04.839Z,13.20
2018-09-05T03:48:33.295Z,11.63
2018-09-05T03:51:01.713Z,11.37
2018-09-05T03:53:30.200Z,14.20
2018-09-05T03:56:05.133Z,14.20
2018-09-05T03:58:33.725Z,15.30
2018-09-05T04:01:02.184Z,13.20
2018-09-05T04:03:30.673Z,14.80
2018-09-05T04:05:59.045Z,13.60
2018-09-05T04:08:27.509Z,12.30
2018-09-05T04:10:56.023Z,14.47
2018-09-05T04:13:24.482Z,14.27
2018-09-05T04:15:52.968Z,13.47
2018-09-05T04:18:21.448Z,12.93
2018-09-05T04:20:49.863Z,13.80
2018-09-05T04:23:18.334Z,12.77
2018-09-05T04:25:46.761Z,14.83
2018-09-05T04:28:15.219Z,12.27
2018-09-05T04:30:43.689Z,13.47
2018-09-05T04:33:12.116Z,15.93
2018-09-05T04:35:40.523Z,15.87
2018-09-05T04:38:08.931Z,17.23
2018-09-05T04:40:37.303Z,16.63
2018-09-05T04:43:05.702Z,14.67
2018-09-05T04:45:34.119Z,14.37
2018-09-05T04:48:02.557Z,14.13
2018-09-05T04:50:31.145Z,15.13
2018-09-05T04:52:59.621Z,14.37
2018-09-05T04:55:28.139Z,14.70
2018-09-05T04:57:56.687Z,15.20
2018-09-05T05:00:25.178Z,12.40
2018-09-05T05:02:53.666Z,12.73
2018-09-05T05:05:22.132Z,16.10
2018-09-05T05:07:50.481Z,12.20
2018-09-05T05:10:19.015Z,13.80
2018-09-05T05:12:47.362Z,12.27
2018-09-05T05:15:15.818Z,14.10
2018-09-05T05:17:44.244Z,12.23
2018-09-05T05:20:12.737Z,12.23
2018-09-05T05:22:41.187Z,12.53
2018-09-05T05:25:09.672Z,14.00
2018-09-05T05:27:38.102Z,11.90
2018-09-05T05:30:06.763Z,15.57
2018-09-05T05:32:35.191Z,12.00
2018-09-05T05:35:03.623Z,13.43
2018-09-05T05:37:32.079Z,13.60
2018-09-05T05:40:04.874Z,13.27
2018-09-05T05:42:33.338Z,14.57
2018-09-05T05:45:01.969Z,13.10
2018-09-05T05:47:31.142Z,11.83
2018-09-05T05:49:59.602Z,12.33
2018-09-05T05:52:28.033Z,16.07
2018-09-05T05:54:56.604Z,13.67
2018-09-05T05:57:25.027Z,12.60
2018-09-05T05:59:53.530Z,14.80
2018-09-05T06:02:22.033Z,15.23
2018-09-05T06:04:50.563Z,13.03
2018-09-05T06:07:19.078Z,12.63
2018-09-05T06:09:47.463Z,12.70
2018-09-05T06:12:15.941Z,11.87
2018-09-05T06:14:44.310Z,12.73
2018-09-05T06:17:12.921Z,12.70
2018-09-05T06:19:41.405Z,12.53
2018-09-05T06:22:09.878Z,12.10
2018-09-05T06:24:38.283Z,11.27
2018-09-05T06:27:06.736Z,11.23
2018-09-05T06:29:35.223Z,13.07
2018-09-05T06:32:03.718Z,12.83
2018-09-05T06:34:32.247Z,13.83
2018-09-05T06:37:00.735Z,14.03
2018-09-05T06:39:29.115Z,14.73
2018-09-05T06:41:57.446Z,13.40
2018-09-05T06:44:26.023Z,12.13
2018-09-05T06:46:54.499Z,12.60
2018-09-05T06:49:22.918Z,13.47
2018-09-05T06:51:51.308Z,13.13
2018-09-05T06:54:19.719Z,12.83
2018-09-05T06:56:48.127Z,12.93
2018-09-05T06:59:16.587Z,11.47
2018-09-05T07:01:45.135Z,12.00
2018-09-05T07:04:13.560Z,12.33
2018-09-05T07:06:42.108Z,11.93
2018-09-05T07:09:12.159Z,11.63
2018-09-05T07:11:41.056Z,14.07
2018-09-05T07:14:09.594Z,12.67
2018-09-05T07:16:37.979Z,12.27
2018-09-05T07:19:07.730Z,12.30
2018-09-05T07:21:36.653Z,12.20
2018-09-05T07:24:05.055Z,12.60
2018-09-05T07:26:33.518Z,14.87
2018-09-05T07:29:01.886Z,13.17
2018-09-05T07:31:30.319Z,13.73
2018-09-05T07:33:58.791Z,13.27
2018-09-05T07:36:27.383Z,14.83
2018-09-05T07:38:55.746Z,13.67
2018-09-05T07:41:24.143Z,13.67
2018-09-05T07:43:52.592Z,12.47
2018-09-05T07:46:21.020Z,12.97
2018-09-05T07:48:49.454Z,12.57
2018-09-05T07:51:18.167Z,13.03
2018-09-05T07:53:46.543Z,13.80
2018-09-05T07:56:15.105Z,15.27
2018-09-05T07:58:43.599Z,15.53
2018-09-05T08:01:12.179Z,15.73
2018-09-05T08:03:40.676Z,13.23
2018-09-05T08:06:09.185Z,16.97
2018-09-05T08:08:37.663Z,16.57
2018-09-05T08:11:06.248Z,18.87
2018-09-05T08:13:34.655Z,16.50
2018-09-05T08:16:03.176Z,18.33
2018-09-05T08:18:31.586Z,15.90
2018-09-05T08:21:00.032Z,16.83
2018-09-05T08:23:28.549Z,18.57
2018-09-05T08:25:57.310Z,16.23
2018-09-05T08:28:25.812Z,13.03
2018-09-05T08:30:54.268Z,15.03
2018-09-05T08:33:22.839Z,16.33
2018-09-05T08:35:51.629Z,14.53
2018-09-05T08:38:20.143Z,13.43
2018-09-05T08:40:48.702Z,14.03
2018-09-05T08:43:17.144Z,15.40
2018-09-05T08:45:46.067Z,16.13
2018-09-05T08:48:14.487Z,13.43
2018-09-05T08:50:42.941Z,13.87
2018-09-05T08:53:11.479Z,15.67
2018-09-05T08:55:39.885Z,16.57
2018-09-05T08:58:08.456Z,15.10
2018-09-05T09:00:37.017Z,16.53
2018-09-05T09:03:05.538Z,17.30
2018-09-05T09:05:33.918Z,15.07
2018-09-05T09:08:02.382Z,15.87
2018-09-05T09:10:30.807Z,15.50
2018-09-05T09:12:59.251Z,14.97
2018-09-05T09:15:27.617Z,15.40
2018-09-05T09:17:56.044Z,16.43
2018-09-05T09:20:24.379Z,14.77
2018-09-05T09:22:52.854Z,14.37
2018-09-05T09:25:21.334Z,15.53
2018-09-05T09:27:49.800Z,16.03
2018-09-05T09:30:18.306Z,17.33
2018-09-05T09:32:46.783Z,14.37
2018-09-05T09:35:15.256Z,13.47
2018-09-05T09:37:43.690Z,15.10
2018-09-05T09:40:12.149Z,17.07
2018-09-05T09:42:40.850Z,14.63
2018-09-05T09:45:09.295Z,17.33
2018-09-05T09:47:37.662Z,14.37
2018-09-05T09:50:06.201Z,15.40
2018-09-05T09:52:37.730Z,14.97
2018-09-05T09:55:07.479Z,14.33
2018-09-05T09:57:36.324Z,13.50
2018-09-05T10:00:05.276Z,15.53
2018-09-05T10:02:39.006Z,14.60
2018-09-05T10:05:12.829Z,14.97
2018-09-05T10:07:46.687Z,14.73
2018-09-05T10:10:20.703Z,15.10
2018-09-05T10:12:49.854Z,14.10
2018-09-05T10:15:23.720Z,15.13
2018-09-05T10:17:57.758Z,14.40
2018-09-05T10:20:26.313Z,14.20
2018-09-05T10:22:54.688Z,14.93
2018-09-05T10:25:23.130Z,14.10
2018-09-05T10:27:51.536Z,14.60
2018-09-05T10:30:20.031Z,14.43
2018-09-05T10:32:48.500Z,14.80
2018-09-05T10:35:17.111Z,14.40
2018-09-05T10:37:45.593Z,14.70
2018-09-05T10:40:14.172Z,13.40
2018-09-05T10:42:42.665Z,14.60
2018-09-05T10:45:11.163Z,13.67
2018-09-05T10:47:39.677Z,13.90
2018-09-05T10:50:08.200Z,14.57
2018-09-05T10:52:36.715Z,14.10
2018-09-05T10:55:05.164Z,15.27
2018-09-05T10:57:33.591Z,13.90
2018-09-05T11:00:02.028Z,13.40
2018-09-05T11:02:30.396Z,16.53
2018-09-05T11:04:58.836Z,15.30
2018-09-05T11:07:27.198Z,14.73
2018-09-05T11:09:55.649Z,14.87
2018-09-05T11:12:24.077Z,14.13
2018-09-05T11:14:52.624Z,14.90
2018-09-05T11:17:21.147Z,14.40
2018-09-05T11:19:49.643Z,14.23
2018-09-05T11:22:18.247Z,14.77
2018-09-05T11:24:46.651Z,13.87
2018-09-05T11:27:15.336Z,14.30
2018-09-05T11:29:44.738Z,14.63
2018-09-05T11:32:15.286Z,14.73
2018-09-05T11:34:43.723Z,14.10
2018-09-05T11:37:12.107Z,14.53
2018-09-05T11:39:42.071Z,14.57
2018-09-05T11:42:10.501Z,14.73
2018-09-05T11:44:38.970Z,14.83
2018-09-05T11:47:07.371Z,14.27
2018-09-05T11:49:36.048Z,13.70
2018-09-05T11:52:05.650Z,14.83
2018-09-05T11:54:34.080Z,16.43
2018-09-05T11:57:03.661Z,15.00
2018-09-05T11:59:32.134Z,15.00
2018-09-05T12:02:00.547Z,14.27
2018-09-05T12:04:29.042Z,16.67
2018-09-05T12:06:57.507Z,14.47
2018-09-05T12:09:27.029Z,13.87
2018-09-05T12:11:55.459Z,14.63
2018-09-05T12:14:23.916Z,14.27
2018-09-05T12:16:52.683Z,15.13
2018-09-05T12:19:21.156Z,15.17
2018-09-05T12:21:49.699Z,14.67
2018-09-05T12:24:18.191Z,14.53
2018-09-05T12:26:46.821Z,15.37
2018-09-05T12:29:15.390Z,14.23
2018-09-05T12:31:43.994Z,14.43
2018-09-05T12:34:46.898Z,14.77
2018-09-05T12:37:15.168Z,14.23
2018-09-05T12:39:43.470Z,14.63
2018-09-05T12:42:11.728Z,14.20
2018-09-05T12:44:39.968Z,14.60
2018-09-05T12:47:08.154Z,13.50
2018-09-05T12:49:36.424Z,13.20
2018-09-05T12:52:04.622Z,14.30
2018-09-05T12:54:32.903Z,13.83
2018-09-05T12:57:01.311Z,13.77
2018-09-05T12:59:29.600Z,14.60
2018-09-05T13:01:57.933Z,13.30
2018-09-05T13:04:26.212Z,13.90
2018-09-05T13:06:54.482Z,13.93
2018-09-05T13:09:22.772Z,12.80
2018-09-05T13:11:51.016Z,15.80
2018-09-05T13:14:19.325Z,13.33
2018-09-05T13:16:47.602Z,14.33
2018-09-05T13:19:15.883Z,13.93
2018-09-05T13:21:44.143Z,13.83
2018-09-05T13:24:12.483Z,13.83
2018-09-05T13:26:40.834Z,12.93
2018-09-05T13:29:09.303Z,13.93
2018-09-05T13:31:37.516Z,14.47
2018-09-05T13:34:05.742Z,13.57
2018-09-05T13:36:33.935Z,13.23
2018-09-05T13:39:02.212Z,15.07
2018-09-05T13:41:30.480Z,13.70
2018-09-05T13:43:58.746Z,12.83
2018-09-05T13:46:26.920Z,13.27
2018-09-05T13:48:55.144Z,13.97
2018-09-05T13:51:23.392Z,12.87
2018-09-05T13:53:51.614Z,12.60
2018-09-05T13:56:21.971Z,13.30
2018-09-05T13:58:50.991Z,12.77
2018-09-05T14:01:19.292Z,13.60
2018-09-05T14:03:47.530Z,12.43
2018-09-05T14:06:15.801Z,13.17
2018-09-05T14:08:44.067Z,13.70
2018-09-05T14:11:12.756Z,13.20
2018-09-05T14:13:40.967Z,13.40
2018-09-05T14:16:09.187Z,13.23
2018-09-05T14:18:37.526Z,12.17
2018-09-05T14:21:06.796Z,12.97
2018-09-05T14:23:35.448Z,12.77
2018-09-05T14:26:03.723Z,12.73
2018-09-05T14:28:32.962Z,12.30
2018-09-05T14:31:01.198Z,12.20
2018-09-05T14:33:29.455Z,14.47
2018-09-05T14:35:57.686Z,12.43
2018-09-05T14:38:25.957Z,12.07
2018-09-05T14:40:54.541Z,12.10
2018-09-05T14:43:22.779Z,11.67
2018-09-05T14:45:50.961Z,12.67
2018-09-05T14:48:19.212Z,12.40
2018-09-05T14:50:47.427Z,12.47
2018-09-05T14:53:15.643Z,12.40
2018-09-05T14:55:43.873Z,11.57
2018-09-05T14:58:12.152Z,11.00
2018-09-05T15:00:40.384Z,11.83
2018-09-05T15:03:08.700Z,12.37
2018-09-05T15:05:37.003Z,11.83
2018-09-05T15:08:05.252Z,12.47
2018-09-05T15:10:39.318Z,12.60
2018-09-05T15:13:07.530Z,11.70
2018-09-05T15:15:35.793Z,13.27
2018-09-05T15:18:04.109Z,12.53
2018-09-05T15:20:32.414Z,12.20
2018-09-05T15:23:00.709Z,12.10
2018-09-05T15:25:28.916Z,12.53
2018-09-05T15:27:57.306Z,12.10
2018-09-05T15:30:25.637Z,12.60
2018-09-05T15:32:53.842Z,14.03
2018-09-05T15:35:22.275Z,12.90
2018-09-05T15:37:50.506Z,14.80
2018-09-05T15:40:18.752Z,13.00
2018-09-05T15:42:47.107Z,13.37
2018-09-05T15:45:15.393Z,13.30
2018-09-05T15:47:43.615Z,12.47
2018-09-05T15:50:11.962Z,12.80
2018-09-05T15:52:40.140Z,12.80
2018-09-05T15:55:08.346Z,12.67
2018-09-05T15:57:36.623Z,13.13
2018-09-05T16:00:04.855Z,13.07
2018-09-05T16:02:33.067Z,13.97
2018-09-05T16:05:01.354Z,12.43
2018-09-05T16:07:29.938Z,13.50
2018-09-05T16:09:58.118Z,12.70
2018-09-05T16:12:26.378Z,13.03
2018-09-05T16:14:54.559Z,12.50
2018-09-05T16:17:22.838Z,14.03
2018-09-05T16:19:51.074Z,13.80
2018-09-05T16:22:19.291Z,13.20
2018-09-05T16:24:47.573Z,14.17
2018-09-05T16:27:15.835Z,13.40
2018-09-05T16:29:44.277Z,13.43
2018-09-05T16:32:12.577Z,13.83
2018-09-05T16:34:40.836Z,13.43
2018-09-05T16:37:09.133Z,14.30
2018-09-05T16:39:37.399Z,14.33
2018-09-05T16:42:05.697Z,13.20
2018-09-05T16:44:33.872Z,13.00
2018-09-05T16:47:02.131Z,12.90
2018-09-05T16:49:30.294Z,13.10
2018-09-05T16:51:58.550Z,12.20
2018-09-05T16:54:26.755Z,12.90
2018-09-05T16:56:54.949Z,13.90
2018-09-05T16:59:23.166Z,13.33
2018-09-05T17:01:51.412Z,17.93
2018-09-05T17:04:19.584Z,14.67
2018-09-05T17:06:47.929Z,14.00
2018-09-05T17:09:16.128Z,12.17
2018-09-05T17:11:44.371Z,12.17
2018-09-05T17:14:12.629Z,14.43
2018-09-05T17:16:40.862Z,12.10
2018-09-05T17:19:09.081Z,12.80
2018-09-05T17:21:37.354Z,13.43
2018-09-05T17:24:05.527Z,13.03
2018-09-05T17:26:33.843Z,13.20
2018-09-05T17:29:02.054Z,15.00
2018-09-05T17:31:30.234Z,12.17
2018-09-05T17:33:58.450Z,13.87
2018-09-05T17:36:26.651Z,13.83
2018-09-05T17:38:54.906Z,15.47
2018-09-05T17:41:23.104Z,15.67
2018-09-05T17:43:51.369Z,15.73
2018-09-05T17:46:19.648Z,18.40
2018-09-05T17:48:47.928Z,26.13
2018-09-05T17:51:16.172Z,22.33
2018-09-05T17:53:44.449Z,17.03
2018-09-05T17:56:12.646Z,18.43
2018-09-05T17:58:40.926Z,16.97
2018-09-05T18:01:12.656Z,29.20
2018-09-05T18:03:40.855Z,24.57
2018-09-05T18:06:09.116Z,24.90
2018-09-05T18:08:37.342Z,43.03
2018-09-05T18:11:05.587Z,21.57
2018-09-05T18:13:33.806Z,26.33
2018-09-05T18:16:02.081Z,17.97
2018-09-05T18:18:30.331Z,26.63
2018-09-05T18:20:58.551Z,27.57
2018-09-05T18:23:26.801Z,17.57
2018-09-05T18:25:54.986Z,19.30
2018-09-05T18:28:23.219Z,21.30
2018-09-05T18:30:51.478Z,20.47
2018-09-05T18:33:19.810Z,24.00
2018-09-05T18:35:48.039Z,20.20
2018-09-05T18:38:16.361Z,17.30
2018-09-05T18:40:44.494Z,15.53
2018-09-05T18:43:12.814Z,16.80
2018-09-05T18:45:41.099Z,15.87
2018-09-05T18:48:09.490Z,17.70
2018-09-05T18:50:38.061Z,19.67
2018-09-05T18:53:10.327Z,18.53
2018-09-05T18:55:40.029Z,18.80
2018-09-05T18:58:08.686Z,18.20
2018-09-05T19:00:37.572Z,18.73
2018-09-05T19:03:12.601Z,17.63
2018-09-05T19:05:43.530Z,16.67
2018-09-05T19:08:12.037Z,20.90
2018-09-05T19:10:40.696Z,21.77
2018-09-05T19:13:11.201Z,17.77
2018-09-05T19:15:39.683Z,18.00
2018-09-05T19:18:08.911Z,17.80
2018-09-05T19:20:37.340Z,18.23
2018-09-05T19:23:05.888Z,17.43
2018-09-05T19:25:34.346Z,17.30
2018-09-05T19:28:02.921Z,18.03
2018-09-05T19:30:32.339Z,18.30
2018-09-05T19:33:00.769Z,20.33
2018-09-05T19:35:29.302Z,17.63
2018-09-05T19:37:57.716Z,17.70
2018-09-05T19:40:26.147Z,19.47
2018-09-05T19:42:54.475Z,16.27
2018-09-05T19:45:22.919Z,17.20
2018-09-05T19:47:51.506Z,17.73
2018-09-05T19:50:19.896Z,18.50
2018-09-05T19:52:48.320Z,20.13
2018-09-05T19:55:16.791Z,20.70
2018-09-05T19:57:45.164Z,17.20
2018-09-05T20:00:15.131Z,22.03
2018-09-05T20:02:43.574Z,18.90
2018-09-05T20:05:12.096Z,17.30
2018-09-05T20:07:40.544Z,16.93
2018-09-05T20:10:09.040Z,16.93
2018-09-05T20:12:37.451Z,20.73
2018-09-05T20:15:05.931Z,20.20
2018-09-05T20:17:34.393Z,21.10
2018-09-05T20:20:02.804Z,19.70
2018-09-05T20:22:31.203Z,19.57
2018-09-05T20:24:59.723Z,20.23
2018-09-05T20:27:28.283Z,21.07
2018-09-05T20:29:57.192Z,19.43
2018-09-05T20:32:25.801Z,22.53
2018-09-05T20:34:54.234Z,21.47
2018-09-05T20:37:22.643Z,21.10
2018-09-05T20:39:51.091Z,21.27
2018-09-05T20:42:19.572Z,19.73
2018-09-05T20:44:48.045Z,32.53
2018-09-05T20:47:16.544Z,20.03
2018-09-05T20:49:44.984Z,19.03
2018-09-05T20:52:13.537Z,18.83
2018-09-05T20:54:42.019Z,21.50
2018-09-05T20:57:10.484Z,19.10
2018-09-05T20:59:38.956Z,20.03
2018-09-05T21:02:07.361Z,18.40
2018-09-05T21:04:35.803Z,17.87
2018-09-05T21:07:04.236Z,17.10
2018-09-05T21:09:32.760Z,20.53
2018-09-05T21:12:01.351Z,18.30
2018-09-05T21:14:29.812Z,17.27
2018-09-05T21:16:58.298Z,18.10
2018-09-05T21:19:26.999Z,19.07
2018-09-05T21:21:55.507Z,18.67
2018-09-05T21:24:24.057Z,18.20
2018-09-05T21:26:52.435Z,18.83
2018-09-05T21:29:20.880Z,17.93
2018-09-05T21:31:49.420Z,17.73
2018-09-05T21:34:17.823Z,19.43
2018-09-05T21:36:46.265Z,18.63
2018-09-05T21:39:14.720Z,18.63
2018-09-05T21:41:43.214Z,20.63
2018-09-05T21:44:11.727Z,19.67
2018-09-05T21:46:40.232Z,19.43
2018-09-05T21:49:08.674Z,20.90
2018-09-05T21:51:37.085Z,21.83
2018-09-05T21:54:05.603Z,19.63
2018-09-05T21:56:34.067Z,21.80
2018-09-05T21:59:02.542Z,19.10
2018-09-05T22:01:31.046Z,21.13
2018-09-05T22:03:59.478Z,20.67
2018-09-05T22:06:27.958Z,21.53
2018-09-05T22:08:56.440Z,23.70
2018-09-05T22:11:26.821Z,23.20
2018-09-05T22:13:56.016Z,21.93
2018-09-05T22:16:24.507Z,25.07
2018-09-05T22:18:53.049Z,24.60
2018-09-05T22:21:21.562Z,23.50
2018-09-05T22:23:50.047Z,22.80
2018-09-05T22:26:18.545Z,21.57
2018-09-05T22:28:47.088Z,20.60
2018-09-05T22:31:15.605Z,18.63
2018-09-05T22:33:44.155Z,20.70
2018-09-05T22:36:12.571Z,18.83
2018-09-05T22:38:41.014Z,19.60
2018-09-05T22:41:09.418Z,19.20
2018-09-05T22:43:49.059Z,19.53
2018-09-05T22:46:28.771Z,20.60
2018-09-05T22:49:08.376Z,20.17
2018-09-05T22:52:19.452Z,21.07
2018-09-05T22:57:11.754Z,21.60
2018-09-05T23:01:02.074Z,22.50
2018-09-05T23:03:41.926Z,22.30
2018-09-05T23:07:20.351Z,21.97
2018-09-05T23:09:59.966Z,22.67
2018-09-05T23:12:39.717Z,24.10
2018-09-05T23:15:19.574Z,26.87
2018-09-05T23:20:02.418Z,24.33
2018-09-05T23:22:42.112Z,21.77
2018-09-05T23:25:10.748Z,20.77
2018-09-05T23:27:39.260Z,24.03
2018-09-05T23:30:08.416Z,22.33
2018-09-05T23:32:36.859Z,21.03
2018-09-05T23:35:05.379Z,21.37
2018-09-05T23:37:33.998Z,21.53
2018-09-05T23:40:02.535Z,21.07
2018-09-05T23:42:30.977Z,21.87
2018-09-05T23:44:59.499Z,24.67
2018-09-05T23:47:28.089Z,21.03
2018-09-05T23:49:56.515Z,23.20
2018-09-05T23:52:24.952Z,22.23
2018-09-05T23:54:53.534Z,22.67
2018-09-05T23:57:22.023Z,21.87
2018-09-05T23:59:50.505Z,22.67
